»·PEaware :: N621KC KLGB-KPSP

N621KC :: KLGB-KPSP

FLIGHT INFORMATION

Flight Status: Arrived
Operator: Privately registered:
United States
More flights under this callsign
Pilot: Skye D. (10623)
Aircraft: EMBRAER BANDEIRANTE
(E110)
More flights by this aircraft type
Origin: KLGB Long Beach
United States
Destination: KPSP Palm Springs Intl
United States
More flights between these airports :: More routes between these airports
Route: +SLI V64 TRM
File this flight plan on PilotEdge
Remarks:
Altitude:
(Current/Filed)
9,000ft
Speed:
(Current/Filed)
200kts
Departed: 11-Feb-18 12:21 PM
Arrived: 11-Feb-18 01:02 PM
Distance/Time
Traveled:
82nm/0:41
Distance/Time
To Go:
Arrived

Flight Plot

Page will automatically refresh every two minutes.


Map Options




Map Legend


Flown Route
Filed Route
Departure Airport
Arrival Airport
Navaid (VOR, NDB)
Fix

Horizontal Profiles

Position Reports

Time Latitude Longitude Heading Altitude Ground
Speed
11-Feb-18 12:02 33.812631 -118.160101 270 65ft 0kts
11-Feb-18 12:05 33.821375 -118.159300 0 65ft 0kts
11-Feb-18 12:06 33.821375 -118.159300 0 65ft 0kts
11-Feb-18 12:07 33.821375 -118.159300 0 65ft 0kts
11-Feb-18 12:08 33.821375 -118.159300 0 65ft 0kts
11-Feb-18 12:10 33.821375 -118.159300 0 65ft 0kts
11-Feb-18 12:11 33.821375 -118.159300 0 65ft 0kts
11-Feb-18 12:12 33.821375 -118.159300 0 65ft 0kts
11-Feb-18 12:13 33.821375 -118.159300 0 65ft 0kts
11-Feb-18 12:14 33.821375 -118.159300 0 65ft 0kts
11-Feb-18 12:15 33.821375 -118.159300 0 65ft 0kts
11-Feb-18 12:16 33.821375 -118.159300 0 65ft 0kts
11-Feb-18 12:17 33.821375 -118.159300 0 65ft 0kts
11-Feb-18 12:18 33.821380 -118.159300 359 65ft 0kts
11-Feb-18 12:19 33.820980 -118.157700 106 65ft 8kts
11-Feb-18 12:20 33.820966 -118.157614 96 65ft 0kts
11-Feb-18 12:21 33.820963 -118.157572 95 65ft 3kts
11-Feb-18 12:22 33.818628 -118.154213 135 65ft 25kts
11-Feb-18 12:23 33.815024 -118.149865 133 65ft 20kts
11-Feb-18 12:24 33.811684 -118.145640 131 65ft 21kts
11-Feb-18 12:25 33.807477 -118.140510 135 65ft 25kts
11-Feb-18 12:26 33.806432 -118.139052 95 65ft 0kts
11-Feb-18 12:27 33.807305 -118.138598 314 65ft 11kts
11-Feb-18 12:28 33.820485 -118.156109 307 632ft 108kts
11-Feb-18 12:29 33.817317 -118.188229 218 1497ft 133kts
11-Feb-18 12:30 33.781938 -118.216963 213 2551ft 171kts
11-Feb-18 12:31 33.742353 -118.224199 145 4214ft 160kts
11-Feb-18 12:32 33.733614 -118.177923 66 5290ft 169kts
11-Feb-18 12:33 33.751097 -118.131387 60 5879ft 190kts
11-Feb-18 12:34 33.773502 -118.079579 65 5951ft 210kts
11-Feb-18 12:35 33.778714 -118.017553 81 5949ft 219kts
11-Feb-18 12:36 33.780881 -117.959502 101 5968ft 222kts
11-Feb-18 12:37 33.772774 -117.896636 93 6572ft 214kts
11-Feb-18 12:38 33.770383 -117.835854 89 7634ft 197kts
11-Feb-18 12:39 33.768732 -117.779047 91 8651ft 190kts
11-Feb-18 12:40 33.760612 -117.719181 98 9588ft 188kts
11-Feb-18 12:41 33.754236 -117.663523 94 10684ft 180kts
11-Feb-18 12:42 33.749387 -117.607358 93 10955ft 206kts
11-Feb-18 12:43 33.743674 -117.535744 93 10950ft 226kts
11-Feb-18 12:44 33.737775 -117.461341 93 10948ft 234kts
11-Feb-18 12:45 33.731668 -117.384862 93 10947ft 238kts
11-Feb-18 12:46 33.725747 -117.309326 93 10947ft 240kts
11-Feb-18 12:47 33.719697 -117.232738 94 10946ft 240kts
11-Feb-18 12:48 33.713395 -117.155056 93 10946ft 241kts
11-Feb-18 12:49 33.706846 -117.075265 93 10946ft 241kts
11-Feb-18 12:50 33.700188 -116.995401 93 10946ft 241kts
11-Feb-18 12:51 33.693659 -116.917049 93 10901ft 242kts
11-Feb-18 12:52 33.686914 -116.836728 93 10886ft 242kts
11-Feb-18 12:53 33.680219 -116.757556 93 10785ft 246kts
11-Feb-18 12:54 33.673939 -116.672438 93 9670ft 262kts
11-Feb-18 12:55 33.668197 -116.586401 93 9004ft 251kts
11-Feb-18 12:56 33.662993 -116.509301 93 9001ft 223kts
11-Feb-18 12:57 33.658083 -116.436935 93 8454ft 223kts
11-Feb-18 12:58 33.652717 -116.360213 93 7024ft 227kts
11-Feb-18 12:59 33.647733 -116.292017 94 7006ft 196kts
11-Feb-18 13:00 33.642941 -116.228273 94 7008ft 188kts
11-Feb-18 13:01 33.668732 -116.194393 325 6327ft 196kts
11-Feb-18 13:02 33.698366 -116.252081 300 4640ft 224kts
11-Feb-18 13:03 33.727722 -116.309860 300 3952ft 176kts
11-Feb-18 13:04 33.747659 -116.358052 291 3002ft 161kts
11-Feb-18 13:05 33.760584 -116.399512 288 2431ft 135kts
11-Feb-18 13:06 33.771627 -116.439487 289 1520ft 127kts
11-Feb-18 13:07 33.790290 -116.472641 322 1215ft 130kts
11-Feb-18 13:08 33.818468 -116.497656 323 553ft 105kts
11-Feb-18 13:09 33.828619 -116.507526 289 482ft 17kts
11-Feb-18 13:10 33.826449 -116.509014 184 482ft 11kts
11-Feb-18 13:11 33.826134 -116.509170 263 482ft 0kts
11-Feb-18 13:12 33.826134 -116.509170 263 482ft 0kts

Navigation Log

Ident Type
Flight plan parsing failed, navigation log unavailable